sensor_id;sensor_type;location;lat;lon;timestamp;pressure;altitude;pressure_sealevel;temperature;humidity
77017;BME280;65949;53.132;17.930;2023-12-20T00:00:21;100195.30;;;6.00;100.00
77017;BME280;65949;53.132;17.930;2023-12-20T00:03:08;100195.45;;;6.00;100.00
77017;BME280;65949;53.132;17.930;2023-12-20T00:05:34;100196.95;;;6.01;100.00
77017;BME280;65949;53.132;17.930;2023-12-20T00:08:02;100196.41;;;6.02;100.00
77017;BME280;65949;53.132;17.930;2023-12-20T00:10:29;100196.06;;;6.03;100.00
77017;BME280;65949;53.132;17.930;2023-12-20T00:12:55;100199.13;;;6.04;100.00
77017;BME280;65949;53.132;17.930;2023-12-20T00:15:22;100193.27;;;6.03;100.00
77017;BME280;65949;53.132;17.930;2023-12-20T00:17:49;100192.78;;;6.04;100.00
77017;BME280;65949;53.132;17.930;2023-12-20T00:20:15;100197.14;;;6.05;100.00
77017;BME280;65949;53.132;17.930;2023-12-20T00:22:42;100193.50;;;6.04;100.00
77017;BME280;65949;53.132;17.930;2023-12-20T00:25:08;100191.27;;;6.04;100.00
77017;BME280;65949;53.132;17.930;2023-12-20T00:27:35;100190.55;;;6.04;100.00
77017;BME280;65949;53.132;17.930;2023-12-20T00:30:02;100187.98;;;6.05;100.00
77017;BME280;65949;53.132;17.930;2023-12-20T00:32:29;100182.61;;;6.05;100.00
77017;BME280;65949;53.132;17.930;2023-12-20T00:34:55;100180.39;;;6.06;100.00
77017;BME280;65949;53.132;17.930;2023-12-20T00:37:22;100178.27;;;6.07;100.00
77017;BME280;65949;53.132;17.930;2023-12-20T00:39:49;100173.52;;;6.07;100.00
77017;BME280;65949;53.132;17.930;2023-12-20T00:42:15;100174.30;;;6.08;100.00
77017;BME280;65949;53.132;17.930;2023-12-20T00:44:42;100178.39;;;6.08;100.00
77017;BME280;65949;53.132;17.930;2023-12-20T00:47:09;100178.66;;;6.09;100.00
77017;BME280;65949;53.132;17.930;2023-12-20T00:49:35;100179.97;;;6.09;100.00
77017;BME280;65949;53.132;17.930;2023-12-20T00:52:02;100182.65;;;6.08;100.00
77017;BME280;65949;53.132;17.930;2023-12-20T00:54:29;100176.29;;;6.08;100.00
77017;BME280;65949;53.132;17.930;2023-12-20T00:56:57;100173.67;;;6.10;100.00
77017;BME280;65949;53.132;17.930;2023-12-20T00:59:23;100173.89;;;6.11;100.00
77017;BME280;65949;53.132;17.930;2023-12-20T01:01:50;100176.63;;;6.09;100.00
77017;BME280;65949;53.132;17.930;2023-12-20T01:04:17;100169.93;;;6.09;100.00
77017;BME280;65949;53.132;17.930;2023-12-20T01:06:45;100170.45;;;6.09;100.00
77017;BME280;65949;53.132;17.930;2023-12-20T01:09:12;100167.83;;;6.11;100.00
77017;BME280;65949;53.132;17.930;2023-12-20T01:11:38;100168.69;;;6.12;100.00
77017;BME280;65949;53.132;17.930;2023-12-20T01:14:05;100161.55;;;6.12;100.00
77017;BME280;65949;53.132;17.930;2023-12-20T01:16:32;100155.70;;;6.12;100.00
77017;BME280;65949;53.132;17.930;2023-12-20T01:18:58;100157.88;;;6.12;100.00
77017;BME280;65949;53.132;17.930;2023-12-20T01:21:25;100156.54;;;6.12;100.00
77017;BME280;65949;53.132;17.930;2023-12-20T01:23:52;100150.27;;;6.12;100.00
77017;BME280;65949;53.132;17.930;2023-12-20T01:26:18;100149.90;;;6.12;100.00
77017;BME280;65949;53.132;17.930;2023-12-20T01:28:45;100149.27;;;6.11;100.00
77017;BME280;65949;53.132;17.930;2023-12-20T01:31:11;100147.27;;;6.12;100.00
77017;BME280;65949;53.132;17.930;2023-12-20T01:33:38;100142.14;;;6.11;100.00
77017;BME280;65949;53.132;17.930;2023-12-20T01:36:05;100140.64;;;6.13;100.00
77017;BME280;65949;53.132;17.930;2023-12-20T01:38:32;100143.23;;;6.12;100.00
77017;BME280;65949;53.132;17.930;2023-12-20T01:40:59;100133.28;;;6.12;100.00
77017;BME280;65949;53.132;17.930;2023-12-20T01:43:26;100130.51;;;6.12;100.00
77017;BME280;65949;53.132;17.930;2023-12-20T01:45:56;100129.10;;;6.12;100.00
77017;BME280;65949;53.132;17.930;2023-12-20T01:48:26;100129.11;;;6.12;100.00
77017;BME280;65949;53.132;17.930;2023-12-20T01:50:54;100129.59;;;6.14;100.00
77017;BME280;65949;53.132;17.930;2023-12-20T01:53:24;100125.60;;;6.14;100.00
77017;BME280;65949;53.132;17.930;2023-12-20T01:55:55;100123.73;;;6.13;100.00
77017;BME280;65949;53.132;17.930;2023-12-20T01:58:23;100122.52;;;6.15;100.00
77017;BME280;65949;53.132;17.930;2023-12-20T02:00:50;100120.52;;;6.15;100.00
77017;BME280;65949;53.132;17.930;2023-12-20T02:03:18;100121.71;;;6.15;100.00
77017;BME280;65949;53.132;17.930;2023-12-20T02:05:45;100123.51;;;6.15;100.00
77017;BME280;65949;53.132;17.930;2023-12-20T02:08:12;100126.93;;;6.15;100.00
77017;BME280;65949;53.132;17.930;2023-12-20T02:10:39;100124.23;;;6.15;100.00
77017;BME280;65949;53.132;17.930;2023-12-20T02:13:07;100123.08;;;6.14;100.00
77017;BME280;65949;53.132;17.930;2023-12-20T02:15:33;100121.64;;;6.15;100.00
77017;BME280;65949;53.132;17.930;2023-12-20T02:18:00;100115.00;;;6.14;100.00
77017;BME280;65949;53.132;17.930;2023-12-20T02:20:27;100116.12;;;6.15;100.00
77017;BME280;65949;53.132;17.930;2023-12-20T02:22:54;100110.10;;;6.15;100.00
77017;BME280;65949;53.132;17.930;2023-12-20T02:25:20;100108.50;;;6.15;100.00
77017;BME280;65949;53.132;17.930;2023-12-20T02:27:47;100109.34;;;6.15;100.00
77017;BME280;65949;53.132;17.930;2023-12-20T02:30:14;100106.89;;;6.14;100.00
77017;BME280;65949;53.132;17.930;2023-12-20T02:32:41;100102.71;;;6.12;100.00
77017;BME280;65949;53.132;17.930;2023-12-20T02:35:08;100104.05;;;6.15;100.00
77017;BME280;65949;53.132;17.930;2023-12-20T02:37:34;100103.02;;;6.15;100.00
77017;BME280;65949;53.132;17.930;2023-12-20T02:40:01;100101.80;;;6.14;100.00
77017;BME280;65949;53.132;17.930;2023-12-20T02:42:27;100099.31;;;6.13;100.00
77017;BME280;65949;53.132;17.930;2023-12-20T02:44:54;100099.87;;;6.12;100.00
77017;BME280;65949;53.132;17.930;2023-12-20T02:47:20;100095.79;;;6.11;100.00
77017;BME280;65949;53.132;17.930;2023-12-20T02:49:47;100094.79;;;6.11;100.00
77017;BME280;65949;53.132;17.930;2023-12-20T02:52:25;100095.05;;;6.15;100.00
77017;BME280;65949;53.132;17.930;2023-12-20T02:54:51;100100.33;;;6.12;100.00
77017;BME280;65949;53.132;17.930;2023-12-20T02:57:18;100102.97;;;6.12;100.00
77017;BME280;65949;53.132;17.930;2023-12-20T02:59:44;100098.27;;;6.12;100.00
77017;BME280;65949;53.132;17.930;2023-12-20T03:02:11;100093.81;;;6.12;100.00
77017;BME280;65949;53.132;17.930;2023-12-20T03:04:38;100099.33;;;6.14;100.00
77017;BME280;65949;53.132;17.930;2023-12-20T03:07:04;100090.53;;;6.14;100.00
77017;BME280;65949;53.132;17.930;2023-12-20T03:09:31;100091.87;;;6.13;100.00
77017;BME280;65949;53.132;17.930;2023-12-20T03:11:58;100091.63;;;6.15;100.00
77017;BME280;65949;53.132;17.930;2023-12-20T03:14:24;100091.17;;;6.16;100.00
77017;BME280;65949;53.132;17.930;2023-12-20T03:16:51;100089.20;;;6.15;100.00
77017;BME280;65949;53.132;17.930;2023-12-20T03:19:18;100091.94;;;6.15;100.00
77017;BME280;65949;53.132;17.930;2023-12-20T03:21:45;100092.36;;;6.16;100.00
77017;BME280;65949;53.132;17.930;2023-12-20T03:24:12;100092.98;;;6.15;100.00
77017;BME280;65949;53.132;17.930;2023-12-20T03:26:39;100097.46;;;6.17;100.00
77017;BME280;65949;53.132;17.930;2023-12-20T03:29:05;100090.59;;;6.17;100.00
77017;BME280;65949;53.132;17.930;2023-12-20T03:31:32;100090.84;;;6.17;100.00
77017;BME280;65949;53.132;17.930;2023-12-20T03:33:58;100097.71;;;6.17;100.00
77017;BME280;65949;53.132;17.930;2023-12-20T03:36:25;100090.25;;;6.16;100.00
77017;BME280;65949;53.132;17.930;2023-12-20T03:38:52;100091.45;;;6.16;100.00
77017;BME280;65949;53.132;17.930;2023-12-20T03:41:18;100089.79;;;6.15;100.00
77017;BME280;65949;53.132;17.930;2023-12-20T03:43:45;100091.45;;;6.16;100.00
77017;BME280;65949;53.132;17.930;2023-12-20T03:46:12;100090.73;;;6.16;100.00
77017;BME280;65949;53.132;17.930;2023-12-20T03:48:38;100093.71;;;6.16;100.00
77017;BME280;65949;53.132;17.930;2023-12-20T03:51:05;100090.81;;;6.15;100.00
77017;BME280;65949;53.132;17.930;2023-12-20T03:53:31;100090.40;;;6.16;100.00
77017;BME280;65949;53.132;17.930;2023-12-20T03:55:58;100086.89;;;6.15;100.00
77017;BME280;65949;53.132;17.930;2023-12-20T03:58:25;100087.72;;;6.15;100.00
77017;BME280;65949;53.132;17.930;2023-12-20T04:00:52;100085.42;;;6.15;100.00
77017;BME280;65949;53.132;17.930;2023-12-20T04:03:18;100082.87;;;6.13;100.00
77017;BME280;65949;53.132;17.930;2023-12-20T04:05:45;100077.88;;;6.12;100.00
77017;BME280;65949;53.132;17.930;2023-12-20T04:08:12;100081.77;;;6.12;100.00
77017;BME280;65949;53.132;17.930;2023-12-20T04:10:38;100087.95;;;6.11;100.00
77017;BME280;65949;53.132;17.930;2023-12-20T04:13:05;100086.68;;;6.09;100.00
77017;BME280;65949;53.132;17.930;2023-12-20T04:15:32;100089.08;;;6.07;100.00
77017;BME280;65949;53.132;17.930;2023-12-20T04:17:58;100087.40;;;6.06;100.00
77017;BME280;65949;53.132;17.930;2023-12-20T04:20:25;100086.80;;;6.04;100.00
77017;BME280;65949;53.132;17.930;2023-12-20T04:22:51;100083.63;;;6.02;100.00
77017;BME280;65949;53.132;17.930;2023-12-20T04:25:18;100084.14;;;6.01;100.00
77017;BME280;65949;53.132;17.930;2023-12-20T04:27:44;100084.56;;;5.99;100.00
77017;BME280;65949;53.132;17.930;2023-12-20T04:30:13;100080.77;;;5.98;100.00
77017;BME280;65949;53.132;17.930;2023-12-20T04:32:40;100079.58;;;5.97;100.00
77017;BME280;65949;53.132;17.930;2023-12-20T04:35:06;100078.97;;;5.95;100.00
77017;BME280;65949;53.132;17.930;2023-12-20T04:37:34;100081.84;;;5.94;100.00
77017;BME280;65949;53.132;17.930;2023-12-20T04:40:01;100085.63;;;5.92;100.00
77017;BME280;65949;53.132;17.930;2023-12-20T04:42:28;100087.48;;;5.90;100.00
77017;BME280;65949;53.132;17.930;2023-12-20T04:44:55;100084.91;;;5.88;100.00
77017;BME280;65949;53.132;17.930;2023-12-20T04:47:21;100081.59;;;5.88;100.00
77017;BME280;65949;53.132;17.930;2023-12-20T04:49:48;100083.70;;;5.86;100.00
77017;BME280;65949;53.132;17.930;2023-12-20T04:52:15;100090.30;;;5.85;100.00
77017;BME280;65949;53.132;17.930;2023-12-20T04:54:42;100089.90;;;5.83;100.00
77017;BME280;65949;53.132;17.930;2023-12-20T04:57:08;100095.11;;;5.80;100.00
77017;BME280;65949;53.132;17.930;2023-12-20T04:59:35;100095.80;;;5.79;100.00
77017;BME280;65949;53.132;17.930;2023-12-20T05:02:01;100097.95;;;5.78;100.00
77017;BME280;65949;53.132;17.930;2023-12-20T05:04:28;100101.53;;;5.76;100.00
77017;BME280;65949;53.132;17.930;2023-12-20T05:06:55;100100.98;;;5.72;100.00
77017;BME280;65949;53.132;17.930;2023-12-20T05:09:21;100101.55;;;5.71;100.00
77017;BME280;65949;53.132;17.930;2023-12-20T05:11:48;100100.14;;;5.69;100.00
77017;BME280;65949;53.132;17.930;2023-12-20T05:14:15;100094.76;;;5.67;100.00
77017;BME280;65949;53.132;17.930;2023-12-20T05:16:41;100092.94;;;5.66;100.00
77017;BME280;65949;53.132;17.930;2023-12-20T05:19:08;100090.59;;;5.64;100.00
77017;BME280;65949;53.132;17.930;2023-12-20T05:21:34;100092.52;;;5.63;100.00
77017;BME280;65949;53.132;17.930;2023-12-20T05:24:02;100088.92;;;5.61;100.00
77017;BME280;65949;53.132;17.930;2023-12-20T05:26:29;100087.05;;;5.60;100.00
77017;BME280;65949;53.132;17.930;2023-12-20T05:28:56;100081.80;;;5.58;100.00
77017;BME280;65949;53.132;17.930;2023-12-20T05:31:23;100080.40;;;5.58;100.00
77017;BME280;65949;53.132;17.930;2023-12-20T05:33:50;100079.27;;;5.58;100.00
77017;BME280;65949;53.132;17.930;2023-12-20T05:36:16;100083.61;;;5.56;100.00
77017;BME280;65949;53.132;17.930;2023-12-20T05:38:43;100086.16;;;5.53;100.00
77017;BME280;65949;53.132;17.930;2023-12-20T05:41:10;100083.98;;;5.50;100.00
77017;BME280;65949;53.132;17.930;2023-12-20T05:43:37;100087.19;;;5.47;100.00
77017;BME280;65949;53.132;17.930;2023-12-20T05:46:03;100088.15;;;5.43;100.00
77017;BME280;65949;53.132;17.930;2023-12-20T05:48:30;100092.52;;;5.38;100.00
77017;BME280;65949;53.132;17.930;2023-12-20T05:50:57;100088.31;;;5.35;100.00
77017;BME280;65949;53.132;17.930;2023-12-20T05:53:24;100085.38;;;5.32;100.00
77017;BME280;65949;53.132;17.930;2023-12-20T05:55:51;100086.33;;;5.28;100.00
77017;BME280;65949;53.132;17.930;2023-12-20T05:58:17;100086.61;;;5.24;100.00
77017;BME280;65949;53.132;17.930;2023-12-20T06:00:44;100079.35;;;5.19;100.00
77017;BME280;65949;53.132;17.930;2023-12-20T06:03:10;100082.06;;;5.15;100.00
77017;BME280;65949;53.132;17.930;2023-12-20T06:05:37;100075.36;;;5.11;100.00
77017;BME280;65949;53.132;17.930;2023-12-20T06:08:05;100073.60;;;5.08;100.00
77017;BME280;65949;53.132;17.930;2023-12-20T06:10:32;100071.79;;;5.05;100.00
77017;BME280;65949;53.132;17.930;2023-12-20T06:12:59;100072.20;;;5.02;100.00
77017;BME280;65949;53.132;17.930;2023-12-20T06:15:27;100080.17;;;4.99;100.00
77017;BME280;65949;53.132;17.930;2023-12-20T06:17:53;100085.02;;;4.97;100.00
77017;BME280;65949;53.132;17.930;2023-12-20T06:20:20;100086.33;;;4.95;100.00
77017;BME280;65949;53.132;17.930;2023-12-20T06:22:46;100087.79;;;4.94;100.00
77017;BME280;65949;53.132;17.930;2023-12-20T06:25:13;100083.61;;;4.92;100.00
77017;BME280;65949;53.132;17.930;2023-12-20T06:27:40;100084.77;;;4.90;100.00
77017;BME280;65949;53.132;17.930;2023-12-20T06:30:08;100085.58;;;4.89;100.00
77017;BME280;65949;53.132;17.930;2023-12-20T06:32:37;100087.83;;;4.88;100.00
77017;BME280;65949;53.132;17.930;2023-12-20T06:35:06;100095.00;;;4.89;100.00
77017;BME280;65949;53.132;17.930;2023-12-20T06:37:33;100090.50;;;4.89;100.00
77017;BME280;65949;53.132;17.930;2023-12-20T06:39:59;100085.54;;;4.89;100.00
77017;BME280;65949;53.132;17.930;2023-12-20T06:42:26;100090.09;;;4.88;100.00
77017;BME280;65949;53.132;17.930;2023-12-20T06:44:53;100090.86;;;4.85;100.00
77017;BME280;65949;53.132;17.930;2023-12-20T06:47:19;100087.70;;;4.82;100.00
77017;BME280;65949;53.132;17.930;2023-12-20T06:49:46;100083.48;;;4.79;100.00
77017;BME280;65949;53.132;17.930;2023-12-20T06:52:13;100080.81;;;4.77;100.00
77017;BME280;65949;53.132;17.930;2023-12-20T06:54:39;100080.30;;;4.75;100.00
77017;BME280;65949;53.132;17.930;2023-12-20T06:57:06;100084.23;;;4.73;100.00
77017;BME280;65949;53.132;17.930;2023-12-20T06:59:33;100088.50;;;4.70;100.00
77017;BME280;65949;53.132;17.930;2023-12-20T07:01:59;100090.25;;;4.67;100.00
77017;BME280;65949;53.132;17.930;2023-12-20T07:04:26;100090.96;;;4.67;100.00
77017;BME280;65949;53.132;17.930;2023-12-20T07:06:52;100092.54;;;4.66;100.00
77017;BME280;65949;53.132;17.930;2023-12-20T07:09:23;100091.20;;;4.63;100.00
77017;BME280;65949;53.132;17.930;2023-12-20T07:11:49;100098.31;;;4.60;100.00
77017;BME280;65949;53.132;17.930;2023-12-20T07:14:16;100097.89;;;4.58;100.00
77017;BME280;65949;53.132;17.930;2023-12-20T07:16:43;100101.45;;;4.54;100.00
77017;BME280;65949;53.132;17.930;2023-12-20T07:19:09;100106.76;;;4.53;100.00
77017;BME280;65949;53.132;17.930;2023-12-20T07:21:36;100111.59;;;4.49;100.00
77017;BME280;65949;53.132;17.930;2023-12-20T07:24:03;100111.79;;;4.46;100.00
77017;BME280;65949;53.132;17.930;2023-12-20T07:26:29;100111.30;;;4.45;100.00
77017;BME280;65949;53.132;17.930;2023-12-20T07:28:56;100113.20;;;4.43;100.00
77017;BME280;65949;53.132;17.930;2023-12-20T07:31:23;100115.40;;;4.42;100.00
77017;BME280;65949;53.132;17.930;2023-12-20T07:33:50;100113.16;;;4.41;100.00
77017;BME280;65949;53.132;17.930;2023-12-20T07:36:17;100107.77;;;4.40;100.00
77017;BME280;65949;53.132;17.930;2023-12-20T07:38:44;100113.92;;;4.38;100.00
77017;BME280;65949;53.132;17.930;2023-12-20T07:41:11;100110.76;;;4.35;100.00
77017;BME280;65949;53.132;17.930;2023-12-20T07:43:38;100105.66;;;4.33;100.00
77017;BME280;65949;53.132;17.930;2023-12-20T07:46:06;100108.75;;;4.33;100.00
77017;BME280;65949;53.132;17.930;2023-12-20T07:48:35;100115.34;;;4.32;100.00
77017;BME280;65949;53.132;17.930;2023-12-20T07:51:03;100115.55;;;4.30;100.00
77017;BME280;65949;53.132;17.930;2023-12-20T07:53:29;100114.23;;;4.27;99.96
77017;BME280;65949;53.132;17.930;2023-12-20T07:55:56;100110.45;;;4.26;99.99
77017;BME280;65949;53.132;17.930;2023-12-20T07:58:23;100112.70;;;4.24;100.00
77017;BME280;65949;53.132;17.930;2023-12-20T08:00:49;100114.58;;;4.23;99.97
77017;BME280;65949;53.132;17.930;2023-12-20T08:03:16;100121.44;;;4.21;99.89
77017;BME280;65949;53.132;17.930;2023-12-20T08:05:42;100123.80;;;4.19;99.81
77017;BME280;65949;53.132;17.930;2023-12-20T08:08:09;100119.16;;;4.19;99.95
77017;BME280;65949;53.132;17.930;2023-12-20T08:10:36;100116.89;;;4.19;99.91
77017;BME280;65949;53.132;17.930;2023-12-20T08:13:02;100114.88;;;4.19;99.97
77017;BME280;65949;53.132;17.930;2023-12-20T08:15:29;100111.71;;;4.22;100.00
77017;BME280;65949;53.132;17.930;2023-12-20T08:17:55;100112.73;;;4.24;100.00
77017;BME280;65949;53.132;17.930;2023-12-20T08:20:22;100112.79;;;4.24;99.91
77017;BME280;65949;53.132;17.930;2023-12-20T08:22:49;100110.25;;;4.23;99.95
77017;BME280;65949;53.132;17.930;2023-12-20T08:25:15;100106.77;;;4.25;99.99
77017;BME280;65949;53.132;17.930;2023-12-20T08:27:42;100106.56;;;4.27;99.97
77017;BME280;65949;53.132;17.930;2023-12-20T08:30:09;100104.56;;;4.30;99.98
77017;BME280;65949;53.132;17.930;2023-12-20T08:32:36;100108.34;;;4.33;99.97
77017;BME280;65949;53.132;17.930;2023-12-20T08:35:03;100108.85;;;4.38;99.98
77017;BME280;65949;53.132;17.930;2023-12-20T08:37:30;100111.00;;;4.39;99.99
77017;BME280;65949;53.132;17.930;2023-12-20T08:39:56;100111.52;;;4.41;99.97
77017;BME280;65949;53.132;17.930;2023-12-20T08:42:23;100108.49;;;4.44;100.00
77017;BME280;65949;53.132;17.930;2023-12-20T08:44:51;100112.62;;;4.47;99.97
77017;BME280;65949;53.132;17.930;2023-12-20T08:47:17;100112.55;;;4.48;100.00
77017;BME280;65949;53.132;17.930;2023-12-20T08:49:46;100104.56;;;4.51;99.98
77017;BME280;65949;53.132;17.930;2023-12-20T08:52:12;100102.95;;;4.53;99.88
77017;BME280;65949;53.132;17.930;2023-12-20T08:54:39;100098.45;;;4.53;99.71
77017;BME280;65949;53.132;17.930;2023-12-20T08:57:06;100095.73;;;4.54;99.75
77017;BME280;65949;53.132;17.930;2023-12-20T08:59:33;100096.22;;;4.54;99.80
77017;BME280;65949;53.132;17.930;2023-12-20T09:02:00;100093.74;;;4.57;99.73
77017;BME280;65949;53.132;17.930;2023-12-20T09:04:26;100094.52;;;4.62;99.70
77017;BME280;65949;53.132;17.930;2023-12-20T09:06:53;100093.52;;;4.66;99.72
77017;BME280;65949;53.132;17.930;2023-12-20T09:09:19;100089.69;;;4.70;99.38
77017;BME280;65949;53.132;17.930;2023-12-20T09:11:46;100081.57;;;4.75;99.40
77017;BME280;65949;53.132;17.930;2023-12-20T09:14:14;100078.45;;;4.81;99.36
77017;BME280;65949;53.132;17.930;2023-12-20T09:16:41;100073.11;;;4.91;99.38
77017;BME280;65949;53.132;17.930;2023-12-20T09:19:07;100074.92;;;4.96;99.16
77017;BME280;65949;53.132;17.930;2023-12-20T09:21:34;100075.31;;;5.00;98.79
77017;BME280;65949;53.132;17.930;2023-12-20T09:24:01;100075.64;;;5.09;98.67
77017;BME280;65949;53.132;17.930;2023-12-20T09:26:27;100067.71;;;5.19;98.65
77017;BME280;65949;53.132;17.930;2023-12-20T09:28:54;100068.14;;;5.25;98.58
77017;BME280;65949;53.132;17.930;2023-12-20T09:31:20;100068.33;;;5.24;97.66
77017;BME280;65949;53.132;17.930;2023-12-20T09:33:47;100069.63;;;5.25;97.73
77017;BME280;65949;53.132;17.930;2023-12-20T09:36:14;100070.42;;;5.32;97.78
77017;BME280;65949;53.132;17.930;2023-12-20T09:38:41;100072.56;;;5.38;96.33
77017;BME280;65949;53.132;17.930;2023-12-20T09:41:08;100072.85;;;5.40;95.92
77017;BME280;65949;53.132;17.930;2023-12-20T09:43:38;100060.58;;;5.42;95.76
77017;BME280;65949;53.132;17.930;2023-12-20T09:46:06;100058.73;;;5.46;95.33
77017;BME280;65949;53.132;17.930;2023-12-20T09:48:35;100049.56;;;5.47;95.29
77017;BME280;65949;53.132;17.930;2023-12-20T09:51:03;100046.34;;;5.46;95.20
77017;BME280;65949;53.132;17.930;2023-12-20T09:53:31;100030.04;;;5.45;94.65
77017;BME280;65949;53.132;17.930;2023-12-20T09:56:03;100025.34;;;5.46;94.56
77017;BME280;65949;53.132;17.930;2023-12-20T09:58:31;100028.86;;;5.52;94.92
77017;BME280;65949;53.132;17.930;2023-12-20T10:00:58;100027.25;;;5.61;94.61
77017;BME280;65949;53.132;17.930;2023-12-20T10:03:25;100026.59;;;5.68;94.80
77017;BME280;65949;53.132;17.930;2023-12-20T10:05:54;100021.85;;;5.76;94.07
77017;BME280;65949;53.132;17.930;2023-12-20T10:08:24;100016.45;;;5.85;92.97
77017;BME280;65949;53.132;17.930;2023-12-20T10:10:50;100014.09;;;5.95;93.17
77017;BME280;65949;53.132;17.930;2023-12-20T10:13:17;100012.11;;;6.04;92.90
77017;BME280;65949;53.132;17.930;2023-12-20T10:15:44;100011.66;;;6.09;92.21
77017;BME280;65949;53.132;17.930;2023-12-20T10:18:12;100010.58;;;6.09;92.82
77017;BME280;65949;53.132;17.930;2023-12-20T10:20:41;100003.11;;;6.08;91.98
77017;BME280;65949;53.132;17.930;2023-12-20T10:23:08;100001.42;;;6.05;92.32
77017;BME280;65949;53.132;17.930;2023-12-20T10:25:35;99995.98;;;6.02;92.81
77017;BME280;65949;53.132;17.930;2023-12-20T10:28:13;99997.80;;;5.99;92.07
77017;BME280;65949;53.132;17.930;2023-12-20T10:30:40;99991.64;;;5.91;91.74
77017;BME280;65949;53.132;17.930;2023-12-20T10:33:07;99987.62;;;5.84;91.78
77017;BME280;65949;53.132;17.930;2023-12-20T10:35:35;99984.61;;;5.82;92.63
77017;BME280;65949;53.132;17.930;2023-12-20T10:38:06;99977.98;;;5.80;92.40
77017;BME280;65949;53.132;17.930;2023-12-20T10:40:35;99976.26;;;5.77;92.63
77017;BME280;65949;53.132;17.930;2023-12-20T10:43:03;99974.20;;;5.77;92.67
77017;BME280;65949;53.132;17.930;2023-12-20T10:45:31;99972.81;;;5.79;92.46
77017;BME280;65949;53.132;17.930;2023-12-20T10:47:58;99969.42;;;5.79;92.34
77017;BME280;65949;53.132;17.930;2023-12-20T10:50:29;99968.93;;;5.78;92.14
77017;BME280;65949;53.132;17.930;2023-12-20T10:52:57;99963.59;;;5.74;92.19
77017;BME280;65949;53.132;17.930;2023-12-20T10:55:24;99958.78;;;5.70;92.46
77017;BME280;65949;53.132;17.930;2023-12-20T10:57:52;99958.34;;;5.68;92.59
77017;BME280;65949;53.132;17.930;2023-12-20T11:00:23;99956.06;;;5.65;92.58
77017;BME280;65949;53.132;17.930;2023-12-20T11:02:50;99951.08;;;5.62;92.71
77017;BME280;65949;53.132;17.930;2023-12-20T11:05:36;99941.52;;;5.59;92.59
77017;BME280;65949;53.132;17.930;2023-12-20T11:10:51;99928.36;;;5.54;92.47
77017;BME280;65949;53.132;17.930;2023-12-20T11:13:28;99922.89;;;5.52;92.70
77017;BME280;65949;53.132;17.930;2023-12-20T11:15:59;99918.64;;;5.51;92.74
77017;BME280;65949;53.132;17.930;2023-12-20T11:18:29;99913.47;;;5.47;92.02
77017;BME280;65949;53.132;17.930;2023-12-20T11:21:04;99907.79;;;5.44;91.89
77017;BME280;65949;53.132;17.930;2023-12-20T11:23:34;99902.44;;;5.42;91.89
77017;BME280;65949;53.132;17.930;2023-12-20T11:26:02;99895.14;;;5.41;92.54
77017;BME280;65949;53.132;17.930;2023-12-20T11:28:29;99888.96;;;5.43;91.92
77017;BME280;65949;53.132;17.930;2023-12-20T11:30:57;99885.38;;;5.42;91.49
77017;BME280;65949;53.132;17.930;2023-12-20T11:33:35;99879.20;;;5.43;91.94
77017;BME280;65949;53.132;17.930;2023-12-20T11:36:02;99876.31;;;5.45;92.11
77017;BME280;65949;53.132;17.930;2023-12-20T11:38:36;99869.85;;;5.47;92.57
77017;BME280;65949;53.132;17.930;2023-12-20T11:41:08;99860.20;;;5.49;92.38
77017;BME280;65949;53.132;17.930;2023-12-20T11:43:39;99861.29;;;5.49;92.23
77017;BME280;65949;53.132;17.930;2023-12-20T11:46:07;99854.84;;;5.50;92.54
77017;BME280;65949;53.132;17.930;2023-12-20T11:48:38;99853.65;;;5.50;92.84
77017;BME280;65949;53.132;17.930;2023-12-20T11:51:10;99849.80;;;5.48;92.91
77017;BME280;65949;53.132;17.930;2023-12-20T11:53:38;99844.70;;;5.45;92.16
77017;BME280;65949;53.132;17.930;2023-12-20T11:56:08;99836.87;;;5.44;92.94
77017;BME280;65949;53.132;17.930;2023-12-20T11:58:35;99837.40;;;5.45;93.30
77017;BME280;65949;53.132;17.930;2023-12-20T12:01:02;99831.33;;;5.46;93.45
77017;BME280;65949;53.132;17.930;2023-12-20T12:03:30;99824.83;;;5.47;93.54
77017;BME280;65949;53.132;17.930;2023-12-20T12:05:57;99823.82;;;5.45;93.38
77017;BME280;65949;53.132;17.930;2023-12-20T12:08:24;99819.70;;;5.42;93.62
77017;BME280;65949;53.132;17.930;2023-12-20T12:10:51;99815.63;;;5.43;93.53
77017;BME280;65949;53.132;17.930;2023-12-20T12:13:18;99811.95;;;5.43;93.71
77017;BME280;65949;53.132;17.930;2023-12-20T12:15:44;99807.95;;;5.41;93.35
77017;BME280;65949;53.132;17.930;2023-12-20T12:18:15;99805.64;;;5.37;93.43
77017;BME280;65949;53.132;17.930;2023-12-20T12:20:42;99800.02;;;5.35;93.58
77017;BME280;65949;53.132;17.930;2023-12-20T12:23:09;99798.49;;;5.33;93.92
77017;BME280;65949;53.132;17.930;2023-12-20T12:25:36;99791.16;;;5.33;94.29
77017;BME280;65949;53.132;17.930;2023-12-20T12:28:06;99786.50;;;5.33;94.20
77017;BME280;65949;53.132;17.930;2023-12-20T12:30:33;99785.53;;;5.31;94.25
77017;BME280;65949;53.132;17.930;2023-12-20T12:33:00;99780.48;;;5.31;94.34
77017;BME280;65949;53.132;17.930;2023-12-20T12:35:27;99775.05;;;5.31;94.48
77017;BME280;65949;53.132;17.930;2023-12-20T12:37:54;99776.77;;;5.28;94.53
77017;BME280;65949;53.132;17.930;2023-12-20T12:40:20;99772.51;;;5.26;94.45
77017;BME280;65949;53.132;17.930;2023-12-20T12:42:47;99770.66;;;5.22;94.52
77017;BME280;65949;53.132;17.930;2023-12-20T12:45:14;99766.69;;;5.19;95.01
77017;BME280;65949;53.132;17.930;2023-12-20T12:47:41;99763.20;;;5.17;94.82